createdAt,value
2018-12-17T00:00:44.706Z,32.42
2018-12-17T00:01:50.464Z,36.30
2018-12-17T00:02:55.985Z,33.63
2018-12-17T00:04:01.491Z,33.60
2018-12-17T00:05:07.004Z,35.03
2018-12-17T00:06:12.674Z,33.30
2018-12-17T00:07:18.222Z,35.28
2018-12-17T00:08:23.749Z,34.30
2018-12-17T00:09:29.427Z,35.25
2018-12-17T00:10:34.928Z,34.33
2018-12-17T00:11:40.586Z,36.35
2018-12-17T00:12:46.011Z,35.80
2018-12-17T00:13:51.821Z,35.68
2018-12-17T00:14:57.329Z,35.38
2018-12-17T00:16:03.020Z,36.40
2018-12-17T00:17:08.504Z,38.17
2018-12-17T00:18:14.055Z,34.85
2018-12-17T00:19:19.562Z,35.65
2018-12-17T00:20:25.394Z,39.33
2018-12-17T00:21:30.901Z,37.30
2018-12-17T00:22:36.511Z,37.88
2018-12-17T00:23:42.604Z,36.60
2018-12-17T00:24:48.083Z,37.63
2018-12-17T00:25:53.861Z,40.90
2018-12-17T00:26:59.413Z,37.03
2018-12-17T00:28:08.125Z,41.90
2018-12-17T00:29:12.297Z,39.40
2018-12-17T00:30:17.834Z,40.43
2018-12-17T00:31:23.476Z,38.10
2018-12-17T00:32:29.203Z,42.08
2018-12-17T00:33:34.802Z,41.40
2018-12-17T00:34:40.434Z,43.00
2018-12-17T00:35:45.867Z,40.15
2018-12-17T00:36:51.360Z,41.63
2018-12-17T00:37:56.837Z,41.40
2018-12-17T00:39:02.364Z,41.50
2018-12-17T00:41:25.271Z,42.80
2018-12-17T00:42:31.074Z,44.42
2018-12-17T00:43:36.747Z,44.73
2018-12-17T00:44:42.172Z,44.23
2018-12-17T00:45:47.720Z,43.73
2018-12-17T00:46:53.350Z,41.80
2018-12-17T00:47:58.795Z,44.18
2018-12-17T00:49:04.235Z,44.18
2018-12-17T00:50:09.726Z,47.98
2018-12-17T00:51:15.151Z,45.20
2018-12-17T00:52:20.558Z,51.88
2018-12-17T00:53:25.994Z,46.02
2018-12-17T00:54:31.441Z,46.18
2018-12-17T00:55:36.880Z,50.88
2018-12-17T00:56:42.255Z,47.40
2018-12-17T00:57:47.696Z,47.88
2018-12-17T00:58:53.187Z,49.27
2018-12-17T00:59:58.598Z,48.13
2018-12-17T01:01:04.022Z,48.10
2018-12-17T01:02:09.467Z,48.13
2018-12-17T01:03:14.906Z,48.15
2018-12-17T01:04:20.311Z,50.38
2018-12-17T01:05:25.698Z,50.47
2018-12-17T01:06:31.109Z,49.48
2018-12-17T01:07:36.666Z,49.48
2018-12-17T01:08:42.129Z,52.62
2018-12-17T01:09:47.514Z,47.40
2018-12-17T01:10:52.955Z,51.73
2018-12-17T01:11:58.371Z,51.33
2018-12-17T01:13:03.794Z,51.85
2018-12-17T01:14:09.293Z,52.88
2018-12-17T01:15:14.707Z,50.90
2018-12-17T01:16:20.464Z,51.10
2018-12-17T01:17:25.870Z,54.10
2018-12-17T01:18:31.254Z,52.85
2018-12-17T01:19:36.682Z,52.35
2018-12-17T01:20:42.175Z,51.18
2018-12-17T01:21:48.049Z,54.75
2018-12-17T01:22:53.424Z,52.13
2018-12-17T01:23:58.864Z,52.10
2018-12-17T01:25:04.627Z,50.60
2018-12-17T01:26:10.232Z,54.38
2018-12-17T01:27:15.698Z,52.58
2018-12-17T01:28:22.339Z,46.50
2018-12-17T01:29:28.073Z,53.28
2018-12-17T01:30:34.322Z,52.65
2018-12-17T01:31:40.234Z,53.55
2018-12-17T01:32:45.803Z,54.13
2018-12-17T01:33:51.232Z,49.40
2018-12-17T01:34:57.438Z,52.15
2018-12-17T01:36:02.841Z,51.90
2018-12-17T01:37:08.242Z,54.03
2018-12-17T01:38:13.768Z,52.70
2018-12-17T01:39:19.190Z,52.85
2018-12-17T01:40:24.581Z,56.00
2018-12-17T01:41:30.027Z,51.20
2018-12-17T01:42:35.489Z,50.12
2018-12-17T01:43:41.222Z,52.75
2018-12-17T01:44:46.651Z,50.03
2018-12-17T01:45:52.047Z,49.93
2018-12-17T01:46:57.459Z,51.25
2018-12-17T01:48:02.886Z,50.43
2018-12-17T01:49:08.518Z,51.18
2018-12-17T01:50:13.983Z,47.43
2018-12-17T01:51:19.559Z,53.05
2018-12-17T01:52:24.905Z,52.23
2018-12-17T01:53:30.350Z,49.85
2018-12-17T01:54:35.817Z,50.77
2018-12-17T01:55:41.318Z,52.20
2018-12-17T01:56:46.691Z,50.90
2018-12-17T01:57:52.113Z,52.62
2018-12-17T01:58:57.597Z,51.02
2018-12-17T02:00:03.156Z,50.58
2018-12-17T02:01:08.866Z,48.70
2018-12-17T02:02:14.263Z,49.13
2018-12-17T02:03:19.722Z,47.55
2018-12-17T02:04:25.323Z,51.85
2018-12-17T02:05:30.883Z,49.70
2018-12-17T02:06:36.415Z,50.40
2018-12-17T02:07:41.850Z,46.20
2018-12-17T02:08:47.514Z,53.48
2018-12-17T02:09:52.992Z,49.58
2018-12-17T02:10:58.447Z,50.50
2018-12-17T02:12:03.998Z,48.73
2018-12-17T02:13:09.392Z,49.50
2018-12-17T02:14:14.851Z,49.20
2018-12-17T02:15:20.407Z,50.52
2018-12-17T02:16:25.849Z,49.05
2018-12-17T02:17:31.301Z,48.48
2018-12-17T02:18:36.742Z,50.90
2018-12-17T02:19:42.228Z,48.28
2018-12-17T02:20:47.818Z,48.85
2018-12-17T02:21:53.240Z,44.42
2018-12-17T02:22:58.648Z,43.23
2018-12-17T02:24:04.204Z,43.10
2018-12-17T02:25:09.618Z,44.30
2018-12-17T02:26:15.083Z,43.35
2018-12-17T02:27:20.507Z,46.63
2018-12-17T02:28:25.896Z,45.25
2018-12-17T02:29:31.306Z,44.80
2018-12-17T02:30:36.775Z,47.00
2018-12-17T02:31:42.296Z,44.90
2018-12-17T02:32:47.967Z,42.17
2018-12-17T02:33:53.424Z,44.42
2018-12-17T02:34:58.861Z,43.95
2018-12-17T02:36:04.321Z,43.30
2018-12-17T02:37:09.885Z,43.90
2018-12-17T02:38:15.295Z,41.63
2018-12-17T02:39:20.704Z,44.50
2018-12-17T02:40:26.156Z,45.10
2018-12-17T02:41:31.566Z,42.10
2018-12-17T02:42:36.985Z,43.50
2018-12-17T02:43:42.416Z,44.20
2018-12-17T02:44:47.888Z,45.83
2018-12-17T02:45:53.287Z,42.78
2018-12-17T02:46:58.685Z,45.05
2018-12-17T02:48:04.224Z,43.20
2018-12-17T02:49:09.651Z,42.33
2018-12-17T02:50:15.051Z,42.23
2018-12-17T02:51:20.458Z,45.63
2018-12-17T02:52:25.909Z,43.30
2018-12-17T02:53:31.354Z,41.55
2018-12-17T02:54:36.911Z,44.40
2018-12-17T02:55:42.337Z,43.83
2018-12-17T02:56:47.866Z,46.37
2018-12-17T02:57:53.316Z,43.73
2018-12-17T02:58:58.757Z,41.98
2018-12-17T03:00:05.394Z,43.25
2018-12-17T03:01:10.793Z,44.15
2018-12-17T03:02:16.211Z,41.57
2018-12-17T03:03:21.735Z,45.20
2018-12-17T03:04:27.266Z,42.87
2018-12-17T03:05:32.820Z,43.68
2018-12-17T03:06:38.260Z,44.20
2018-12-17T03:07:43.878Z,45.25
2018-12-17T03:08:49.357Z,45.80
2018-12-17T03:09:54.785Z,44.85
2018-12-17T03:11:00.413Z,46.98
2018-12-17T03:12:06.135Z,45.30
2018-12-17T03:13:11.686Z,43.55
2018-12-17T03:14:17.262Z,47.60
2018-12-17T03:15:22.760Z,47.62
2018-12-17T03:16:28.198Z,48.28
2018-12-17T03:17:33.588Z,49.67
2018-12-17T03:18:39.014Z,47.00
2018-12-17T03:19:44.751Z,45.75
2018-12-17T03:20:50.170Z,49.35
2018-12-17T03:21:55.597Z,47.40
2018-12-17T03:23:01.019Z,44.25
2018-12-17T03:24:06.462Z,46.25
2018-12-17T03:25:11.948Z,46.50
2018-12-17T03:26:17.347Z,45.90
2018-12-17T03:27:22.774Z,45.45
2018-12-17T03:28:28.335Z,47.40
2018-12-17T03:29:33.726Z,45.90
2018-12-17T03:30:39.159Z,45.48
2018-12-17T03:31:45.518Z,47.48
2018-12-17T03:32:51.104Z,44.77
2018-12-17T03:33:56.576Z,45.38
2018-12-17T03:35:02.134Z,47.13
2018-12-17T03:36:07.581Z,45.50
2018-12-17T03:37:13.056Z,44.20
2018-12-17T03:38:18.471Z,44.85
2018-12-17T03:39:23.990Z,41.95
2018-12-17T03:40:29.536Z,45.75
2018-12-17T03:41:34.964Z,45.88
2018-12-17T03:42:40.366Z,45.60
2018-12-17T03:43:45.817Z,43.40
2018-12-17T03:44:51.256Z,45.50
2018-12-17T03:45:56.727Z,44.77
2018-12-17T03:47:02.287Z,46.83
2018-12-17T03:48:08.298Z,42.13
2018-12-17T03:49:13.878Z,44.53
2018-12-17T03:50:19.545Z,43.80
2018-12-17T03:51:24.972Z,45.63
2018-12-17T03:52:30.360Z,46.15
2018-12-17T03:53:35.762Z,45.60
2018-12-17T03:54:41.224Z,47.40
2018-12-17T03:55:46.699Z,46.40
2018-12-17T03:56:52.257Z,45.95
2018-12-17T03:57:57.691Z,45.25
2018-12-17T03:59:03.268Z,43.70
2018-12-17T04:00:09.448Z,46.33
2018-12-17T04:01:14.866Z,44.15
2018-12-17T04:02:20.287Z,44.73
2018-12-17T04:03:25.726Z,45.83
2018-12-17T04:04:31.216Z,43.25
2018-12-17T04:05:36.746Z,44.33
2018-12-17T04:06:42.180Z,44.33
2018-12-17T04:07:47.618Z,41.90
2018-12-17T04:08:53.041Z,45.10
2018-12-17T04:09:58.873Z,43.80
2018-12-17T04:11:05.302Z,43.97
2018-12-17T04:12:10.738Z,42.08
2018-12-17T04:13:16.177Z,44.60
2018-12-17T04:14:21.667Z,43.08
2018-12-17T04:15:27.755Z,42.00
2018-12-17T04:16:33.255Z,43.48
2018-12-17T04:17:38.713Z,44.35
2018-12-17T04:18:44.087Z,41.73
2018-12-17T04:19:49.531Z,41.18
2018-12-17T04:20:55.224Z,42.05
2018-12-17T04:22:00.718Z,41.40
2018-12-17T04:23:06.147Z,43.77
2018-12-17T04:24:11.620Z,45.50
2018-12-17T04:25:17.086Z,44.90
2018-12-17T04:26:22.640Z,44.75
2018-12-17T04:27:28.116Z,43.28
2018-12-17T04:28:33.604Z,41.98
2018-12-17T04:29:39.039Z,42.00
2018-12-17T04:30:44.441Z,42.73
2018-12-17T04:31:49.979Z,44.48
2018-12-17T04:32:55.402Z,42.73
2018-12-17T04:34:00.858Z,39.70
2018-12-17T04:35:06.554Z,42.62
2018-12-17T04:36:12.462Z,40.67
2018-12-17T04:37:17.853Z,43.10
2018-12-17T04:38:23.288Z,42.05
2018-12-17T04:39:28.785Z,41.90
2018-12-17T04:40:34.199Z,42.25
2018-12-17T04:41:39.627Z,42.25
2018-12-17T04:42:45.076Z,41.58
2018-12-17T04:43:50.831Z,42.15
2018-12-17T04:44:56.295Z,42.58
2018-12-17T04:46:01.876Z,43.35
2018-12-17T04:47:07.332Z,40.20
2018-12-17T04:48:12.749Z,38.05
2018-12-17T04:49:18.186Z,39.98
2018-12-17T04:50:23.641Z,40.00
2018-12-17T04:51:29.209Z,41.40
2018-12-17T04:52:34.677Z,41.40
2018-12-17T04:53:40.194Z,39.97
2018-12-17T04:54:45.652Z,41.45
2018-12-17T04:55:51.252Z,40.12
2018-12-17T04:56:56.742Z,39.18
2018-12-17T04:58:02.560Z,39.83
2018-12-17T04:59:14.357Z,38.67
2018-12-17T05:00:15.641Z,39.25
2018-12-17T05:01:21.077Z,39.63
2018-12-17T05:02:26.525Z,40.78
2018-12-17T05:03:32.207Z,41.35
2018-12-17T05:04:37.682Z,39.50
2018-12-17T05:05:43.084Z,40.10
2018-12-17T05:06:48.624Z,39.13
2018-12-17T05:07:54.299Z,39.33
2018-12-17T05:08:59.890Z,41.18
2018-12-17T05:10:06.663Z,39.58
2018-12-17T05:11:12.263Z,41.65
2018-12-17T05:12:17.666Z,38.13
2018-12-17T05:13:23.138Z,40.08
2018-12-17T05:14:28.724Z,40.10
2018-12-17T05:15:34.618Z,39.93
2018-12-17T05:16:40.015Z,41.50
2018-12-17T05:17:45.491Z,41.90
2018-12-17T05:18:51.159Z,41.20
2018-12-17T05:19:56.558Z,37.73
2018-12-17T05:21:02.003Z,37.17
2018-12-17T05:22:07.500Z,41.95
2018-12-17T05:23:12.937Z,38.63
2018-12-17T05:24:18.378Z,41.47
2018-12-17T05:25:23.892Z,38.60
2018-12-17T05:26:29.526Z,39.23
2018-12-17T05:27:35.128Z,38.63
2018-12-17T05:28:40.673Z,39.45
2018-12-17T05:29:46.211Z,37.40
2018-12-17T05:30:51.672Z,37.85
2018-12-17T05:31:57.296Z,35.47
2018-12-17T05:33:03.048Z,40.77
2018-12-17T05:34:08.451Z,38.98
2018-12-17T05:35:14.086Z,37.40
2018-12-17T05:36:19.543Z,41.90
2018-12-17T05:37:25.008Z,38.60
2018-12-17T05:38:30.633Z,39.53
2018-12-17T05:39:36.096Z,38.70
2018-12-17T05:40:41.519Z,39.58
2018-12-17T05:41:47.035Z,34.67
2018-12-17T05:42:52.500Z,37.40
2018-12-17T05:43:58.032Z,36.77
2018-12-17T05:45:03.683Z,41.17
2018-12-17T05:46:09.187Z,37.42
2018-12-17T05:47:14.834Z,37.43
2018-12-17T05:48:20.231Z,36.88
2018-12-17T05:49:25.727Z,38.27
2018-12-17T05:50:31.193Z,39.87
2018-12-17T05:51:36.729Z,39.63
2018-12-17T05:52:42.142Z,38.97
2018-12-17T05:53:47.647Z,38.60
2018-12-17T05:54:53.154Z,36.50
2018-12-17T05:55:58.959Z,40.37
2018-12-17T05:57:04.456Z,37.93
2018-12-17T05:58:10.063Z,41.43
2018-12-17T05:59:15.607Z,38.25
2018-12-17T06:00:22.647Z,41.53
2018-12-17T06:01:28.183Z,42.25
2018-12-17T06:02:33.546Z,39.73
2018-12-17T06:03:39.038Z,42.43
2018-12-17T06:04:44.532Z,41.47
2018-12-17T06:05:49.948Z,38.47
2018-12-17T06:06:55.473Z,40.65
2018-12-17T06:08:01.021Z,41.05
2018-12-17T06:09:11.655Z,39.30
2018-12-17T06:10:17.163Z,39.80
2018-12-17T06:11:22.631Z,39.03
2018-12-17T06:12:28.123Z,37.35
2018-12-17T06:13:33.726Z,38.20
2018-12-17T06:14:39.427Z,36.85
2018-12-17T06:15:44.903Z,35.17
2018-12-17T06:16:50.363Z,37.23
2018-12-17T06:17:55.774Z,39.65
2018-12-17T06:19:01.307Z,38.73
2018-12-17T06:20:07.375Z,39.53
2018-12-17T06:21:12.849Z,38.33
2018-12-17T06:22:18.630Z,35.23
2018-12-17T06:23:24.286Z,36.90
2018-12-17T06:24:29.828Z,38.63
2018-12-17T06:25:35.695Z,38.75
2018-12-17T06:26:41.135Z,36.42
2018-12-17T06:27:46.871Z,39.98
2018-12-17T06:28:52.342Z,37.90
2018-12-17T06:29:57.827Z,35.68
2018-12-17T06:31:03.585Z,36.10
2018-12-17T06:32:09.048Z,37.03
2018-12-17T06:33:15.750Z,37.43
2018-12-17T06:34:21.581Z,37.93
2018-12-17T06:35:27.275Z,34.00
2018-12-17T06:36:32.987Z,37.30
2018-12-17T06:37:38.588Z,35.90
2018-12-17T06:38:44.239Z,35.80
2018-12-17T06:39:49.879Z,37.50
2018-12-17T06:40:55.466Z,34.67
2018-12-17T06:42:00.862Z,35.07
2018-12-17T06:43:06.410Z,35.77
2018-12-17T06:44:12.227Z,35.75
2018-12-17T06:45:17.666Z,35.67
2018-12-17T06:46:23.098Z,32.30
2018-12-17T06:47:28.703Z,34.87
2018-12-17T06:48:34.194Z,33.80
2018-12-17T06:49:40.050Z,32.48
2018-12-17T06:50:45.586Z,33.30
2018-12-17T06:51:51.653Z,31.77
2018-12-17T06:52:57.106Z,32.95
2018-12-17T06:54:02.637Z,30.50
2018-12-17T06:55:08.557Z,30.47
2018-12-17T06:56:13.989Z,30.57
2018-12-17T06:57:19.533Z,28.60
2018-12-17T06:58:25.487Z,30.88
2018-12-17T06:59:31.422Z,29.10
2018-12-17T07:00:37.120Z,31.85
2018-12-17T07:01:42.695Z,28.70
2018-12-17T07:02:48.196Z,29.10
2018-12-17T07:03:53.713Z,29.80
2018-12-17T07:04:59.140Z,31.50
2018-12-17T07:06:04.664Z,27.70
2018-12-17T07:07:10.178Z,28.43
2018-12-17T07:08:18.887Z,28.90
2018-12-17T07:09:25.137Z,26.70
2018-12-17T07:10:30.801Z,27.85
2018-12-17T07:11:36.332Z,28.90
2018-12-17T07:12:41.855Z,24.77
2018-12-17T07:13:47.354Z,24.40
2018-12-17T07:14:52.949Z,25.97
2018-12-17T07:15:58.671Z,25.92
2018-12-17T07:17:04.423Z,25.68
2018-12-17T07:18:09.958Z,24.32
2018-12-17T07:19:15.444Z,23.52
2018-12-17T07:20:20.989Z,26.17
2018-12-17T07:21:26.487Z,25.47
2018-12-17T07:22:31.970Z,24.13
2018-12-17T07:23:37.399Z,25.17
2018-12-17T07:24:43.063Z,24.93
2018-12-17T07:25:48.551Z,23.20
2018-12-17T07:26:53.980Z,21.62
2018-12-17T07:27:59.456Z,23.42
2018-12-17T07:29:04.990Z,20.85
2018-12-17T07:30:10.919Z,21.37
2018-12-17T07:31:16.371Z,20.82
2018-12-17T07:32:21.803Z,21.50
2018-12-17T07:33:27.611Z,21.97
2018-12-17T07:34:33.359Z,20.37
2018-12-17T07:35:38.880Z,21.13
2018-12-17T07:36:44.386Z,21.50
2018-12-17T07:37:49.880Z,19.63
2018-12-17T07:38:55.274Z,20.27
2018-12-17T07:40:01.078Z,21.30
2018-12-17T07:41:06.549Z,21.17
2018-12-17T07:42:12.019Z,21.87
2018-12-17T07:43:17.923Z,21.37
2018-12-17T07:44:23.629Z,21.02
2018-12-17T07:45:29.251Z,19.80
2018-12-17T07:46:35.291Z,19.42
2018-12-17T07:47:40.779Z,21.60
2018-12-17T07:48:46.299Z,19.33
2018-12-17T07:49:51.771Z,21.47
2018-12-17T07:50:57.257Z,19.57
2018-12-17T07:52:02.808Z,20.33
2018-12-17T07:53:08.367Z,21.23
2018-12-17T07:54:13.927Z,21.20
2018-12-17T07:55:19.815Z,20.35
2018-12-17T07:56:25.274Z,21.68
2018-12-17T07:57:30.828Z,20.47
2018-12-17T07:58:36.447Z,20.77
2018-12-17T07:59:42.314Z,20.43
2018-12-17T08:00:47.767Z,21.63
2018-12-17T08:01:53.191Z,21.60
2018-12-17T08:02:58.685Z,20.27
2018-12-17T08:04:04.186Z,20.60
2018-12-17T08:05:09.825Z,21.15
2018-12-17T08:06:15.263Z,19.87
2018-12-17T08:07:20.707Z,18.27
2018-12-17T08:08:26.239Z,18.20
2018-12-17T08:09:31.786Z,20.07
2018-12-17T08:10:37.246Z,19.55
2018-12-17T08:11:42.660Z,18.57
2018-12-17T08:12:48.108Z,18.80
2018-12-17T08:13:53.684Z,19.00
2018-12-17T08:14:59.435Z,20.97
2018-12-17T08:16:04.987Z,17.80
2018-12-17T08:17:10.599Z,19.80
2018-12-17T08:18:24.383Z,19.53
2018-12-17T08:19:29.839Z,19.90
2018-12-17T08:20:35.336Z,19.13
2018-12-17T08:21:40.860Z,20.92
2018-12-17T08:22:46.387Z,17.67
2018-12-17T08:23:51.833Z,20.00
2018-12-17T08:24:57.416Z,19.35
2018-12-17T08:26:02.936Z,19.20
2018-12-17T08:27:08.480Z,19.45
2018-12-17T08:28:13.980Z,19.10
2018-12-17T08:29:19.414Z,19.30
2018-12-17T08:30:24.846Z,19.27
2018-12-17T08:31:30.287Z,19.32
2018-12-17T08:32:35.862Z,20.27
2018-12-17T08:33:41.496Z,18.60
2018-12-17T08:34:47.325Z,18.95
2018-12-17T08:35:52.862Z,20.65
2018-12-17T08:36:58.428Z,18.00
2018-12-17T08:38:03.929Z,20.40
2018-12-17T08:39:09.826Z,19.30
2018-12-17T08:40:15.417Z,18.10
2018-12-17T08:41:20.878Z,19.50
2018-12-17T08:42:26.375Z,16.90
2018-12-17T08:43:31.913Z,18.27
2018-12-17T08:44:37.302Z,19.03
2018-12-17T08:45:42.799Z,19.87
2018-12-17T08:46:48.218Z,19.32
2018-12-17T08:47:54.088Z,17.65
2018-12-17T08:48:59.657Z,19.20
2018-12-17T08:50:05.946Z,18.73
2018-12-17T08:51:11.388Z,19.67
2018-12-17T08:52:17.024Z,18.23
2018-12-17T08:53:22.459Z,18.07
2018-12-17T08:54:28.040Z,17.50
2018-12-17T08:55:33.675Z,19.27
2018-12-17T08:56:39.207Z,18.53
2018-12-17T08:57:44.874Z,19.43
2018-12-17T08:58:50.601Z,20.17
2018-12-17T08:59:56.277Z,18.90
2018-12-17T09:01:01.948Z,18.10
2018-12-17T09:02:07.664Z,20.10
2018-12-17T09:03:13.226Z,18.57
2018-12-17T09:04:18.742Z,19.85
2018-12-17T09:05:24.451Z,20.88
2018-12-17T09:06:29.906Z,17.47
2018-12-17T09:07:35.453Z,18.43
2018-12-17T09:08:41.011Z,19.60
2018-12-17T09:09:46.395Z,18.45
2018-12-17T09:10:52.093Z,19.05
2018-12-17T09:11:57.701Z,18.40
2018-12-17T09:13:03.140Z,19.37
2018-12-17T09:14:08.706Z,18.73
2018-12-17T09:15:14.519Z,18.50
2018-12-17T09:16:20.011Z,18.33
2018-12-17T09:17:25.536Z,18.93
2018-12-17T09:18:30.955Z,18.97
2018-12-17T09:19:36.392Z,18.32
2018-12-17T09:20:41.826Z,18.67
2018-12-17T09:21:47.274Z,18.57
2018-12-17T09:22:53.055Z,19.60
2018-12-17T09:23:58.471Z,18.87
2018-12-17T09:25:04.576Z,17.97
2018-12-17T09:26:10.073Z,18.47
2018-12-17T09:27:15.876Z,18.70
2018-12-17T09:28:21.373Z,17.10
2018-12-17T09:29:27.121Z,18.73
2018-12-17T09:30:32.767Z,19.00
2018-12-17T09:31:38.211Z,17.62
2018-12-17T09:32:43.657Z,17.97
2018-12-17T09:33:49.050Z,20.40
2018-12-17T09:34:54.704Z,18.47
2018-12-17T09:36:02.281Z,18.90
2018-12-17T09:37:07.760Z,17.37
2018-12-17T09:38:13.175Z,18.40
2018-12-17T09:39:18.684Z,19.23
2018-12-17T09:40:24.284Z,18.17
2018-12-17T09:41:30.206Z,17.80
2018-12-17T09:42:35.723Z,19.30
2018-12-17T09:43:41.310Z,17.48
2018-12-17T09:44:46.710Z,18.33
2018-12-17T09:45:52.558Z,18.60
2018-12-17T09:46:58.096Z,18.25
2018-12-17T09:48:03.693Z,20.13
2018-12-17T09:49:09.323Z,18.40
2018-12-17T09:50:16.628Z,18.45
2018-12-17T09:51:22.514Z,18.23
2018-12-17T09:52:28.049Z,19.13
2018-12-17T09:53:33.650Z,20.00
2018-12-17T09:54:39.127Z,19.23
2018-12-17T09:55:44.936Z,19.73
2018-12-17T09:56:50.434Z,20.00
2018-12-17T09:57:56.303Z,19.95
2018-12-17T09:59:01.825Z,20.27
2018-12-17T10:00:08.467Z,22.30
2018-12-17T10:01:14.015Z,21.40
2018-12-17T10:02:19.449Z,19.35
2018-12-17T10:03:25.139Z,20.37
2018-12-17T10:04:30.679Z,19.80
2018-12-17T10:05:36.306Z,20.70
2018-12-17T10:06:41.807Z,21.13
2018-12-17T10:07:47.463Z,20.90
2018-12-17T10:08:52.986Z,21.65
2018-12-17T10:09:58.511Z,20.63
2018-12-17T10:11:04.064Z,21.35
2018-12-17T10:12:09.572Z,21.20
2018-12-17T10:13:15.224Z,19.13
2018-12-17T10:14:20.988Z,20.83
2018-12-17T10:15:26.555Z,20.67
2018-12-17T10:16:32.081Z,21.40
2018-12-17T10:17:37.499Z,21.33
2018-12-17T10:18:43.353Z,19.90
2018-12-17T10:19:48.869Z,19.93
2018-12-17T10:20:54.376Z,21.40
2018-12-17T10:21:59.853Z,21.10
2018-12-17T10:23:05.302Z,19.73
2018-12-17T10:24:10.875Z,19.60
2018-12-17T10:25:16.311Z,20.60
2018-12-17T10:26:22.290Z,20.37
2018-12-17T10:27:27.992Z,20.53
2018-12-17T10:28:33.426Z,20.87
2018-12-17T10:29:38.956Z,20.90
2018-12-17T10:30:44.623Z,19.73
2018-12-17T10:31:50.063Z,19.10
2018-12-17T10:32:55.499Z,19.30
2018-12-17T10:34:00.952Z,19.27
2018-12-17T10:35:07.068Z,20.43
2018-12-17T10:36:12.626Z,22.33
2018-12-17T10:37:18.063Z,21.37
2018-12-17T10:38:23.542Z,22.83
2018-12-17T10:39:29.039Z,21.17
2018-12-17T10:40:38.825Z,20.30
2018-12-17T10:41:44.359Z,21.83
2018-12-17T10:42:49.894Z,21.82
2018-12-17T10:43:55.314Z,21.80
2018-12-17T10:45:01.006Z,22.40
2018-12-17T10:46:06.552Z,22.03
2018-12-17T10:47:12.071Z,22.17
2018-12-17T10:48:17.925Z,23.20
2018-12-17T10:49:23.369Z,23.60
2018-12-17T10:50:29.473Z,24.30
2018-12-17T10:51:35.276Z,21.00
2018-12-17T10:52:40.790Z,21.53
2018-12-17T10:53:46.542Z,23.77
2018-12-17T10:54:52.170Z,22.60
2018-12-17T10:55:57.582Z,23.03
2018-12-17T10:57:03.380Z,24.17
2018-12-17T10:58:08.935Z,23.90
2018-12-17T10:59:14.358Z,21.00
2018-12-17T11:00:25.210Z,23.20
2018-12-17T11:01:35.907Z,23.40
2018-12-17T11:02:41.527Z,25.10
2018-12-17T11:03:55.507Z,24.17
2018-12-17T11:05:17.594Z,23.62
2018-12-17T11:06:23.435Z,24.60
2018-12-17T11:07:28.864Z,24.37
2018-12-17T11:08:34.294Z,26.53
2018-12-17T11:09:40.062Z,26.60
2018-12-17T11:10:45.488Z,25.17
2018-12-17T11:11:51.073Z,25.30
2018-12-17T11:12:56.783Z,23.93
2018-12-17T11:14:02.517Z,25.83
2018-12-17T11:15:11.022Z,24.73
2018-12-17T11:16:16.523Z,23.97
2018-12-17T11:17:21.980Z,25.70
2018-12-17T11:18:27.420Z,25.43
2018-12-17T11:19:32.832Z,25.30
2018-12-17T11:20:38.346Z,26.82
2018-12-17T11:21:43.767Z,26.53
2018-12-17T11:22:49.181Z,27.75
2018-12-17T11:23:54.700Z,27.83
2018-12-17T11:25:00.099Z,27.50
2018-12-17T11:26:05.556Z,28.52
2018-12-17T11:27:11.122Z,27.80
2018-12-17T11:28:16.666Z,26.82
2018-12-17T11:29:22.195Z,27.62
2018-12-17T11:30:27.753Z,27.53
2018-12-17T11:31:33.247Z,29.10
2018-12-17T11:33:59.462Z,27.70
2018-12-17T11:35:05.078Z,30.47
2018-12-17T11:36:10.519Z,30.03
2018-12-17T11:37:16.058Z,30.40
2018-12-17T11:38:21.635Z,29.40
2018-12-17T11:39:27.050Z,32.30
2018-12-17T11:40:32.648Z,30.03
2018-12-17T11:41:38.083Z,31.00
2018-12-17T11:42:43.723Z,30.30
2018-12-17T11:43:49.277Z,33.10
2018-12-17T11:44:54.863Z,33.70
2018-12-17T11:47:18.647Z,30.67
2018-12-17T11:48:24.132Z,33.20
2018-12-17T11:49:29.717Z,33.93
2018-12-17T11:50:35.218Z,34.07
2018-12-17T11:51:40.650Z,34.60
2018-12-17T11:52:46.091Z,35.20
2018-12-17T11:53:51.981Z,33.00
2018-12-17T11:54:57.514Z,34.00
2018-12-17T11:56:03.171Z,32.53
2018-12-17T11:58:17.194Z,34.67
2018-12-17T11:59:22.757Z,30.97
2018-12-17T12:00:28.814Z,32.20
2018-12-17T12:01:34.331Z,33.90
2018-12-17T12:02:39.786Z,33.80
2018-12-17T12:03:45.370Z,34.10
2018-12-17T12:04:50.874Z,31.97
2018-12-17T12:05:56.291Z,35.10
2018-12-17T12:07:01.826Z,33.60
2018-12-17T12:08:07.562Z,33.10
2018-12-17T12:09:15.091Z,30.60
2018-12-17T12:10:20.556Z,31.47
2018-12-17T12:11:26.016Z,32.00
2018-12-17T12:12:31.515Z,32.33
2018-12-17T12:13:37.014Z,33.53
2018-12-17T12:14:42.707Z,33.57
2018-12-17T12:15:48.136Z,34.50
2018-12-17T12:16:53.579Z,32.27
2018-12-17T12:17:59.083Z,32.77
2018-12-17T12:19:04.555Z,33.73
2018-12-17T12:20:10.932Z,33.27
2018-12-17T12:21:16.481Z,31.07
2018-12-17T12:22:21.994Z,33.83
2018-12-17T12:23:27.512Z,33.67
2018-12-17T12:24:32.998Z,32.73
2018-12-17T12:25:38.930Z,31.50
2018-12-17T12:26:44.414Z,31.77
2018-12-17T12:27:49.996Z,31.53
2018-12-17T12:28:55.390Z,30.20
2018-12-17T12:30:01.068Z,32.17
2018-12-17T12:31:06.498Z,29.97
2018-12-17T12:32:12.342Z,27.97
2018-12-17T12:33:17.897Z,31.03
2018-12-17T12:34:23.290Z,30.20
2018-12-17T12:35:29.220Z,30.27
2018-12-17T12:36:34.617Z,29.23
2018-12-17T12:37:40.252Z,27.93
2018-12-17T12:38:45.778Z,29.07
2018-12-17T12:39:51.369Z,30.00
2018-12-17T12:40:56.767Z,27.20
2018-12-17T12:42:02.245Z,28.83
2018-12-17T12:43:07.990Z,29.73
2018-12-17T12:44:13.439Z,31.27
2018-12-17T12:45:18.995Z,25.67
2018-12-17T12:46:24.523Z,27.80
2018-12-17T12:47:30.373Z,28.20
2018-12-17T12:48:35.851Z,27.43
2018-12-17T12:49:41.279Z,27.70
2018-12-17T12:50:46.790Z,27.63
2018-12-17T12:51:52.783Z,27.33
2018-12-17T12:52:58.961Z,28.40
2018-12-17T12:54:04.583Z,25.10
2018-12-17T12:55:10.373Z,27.90
2018-12-17T12:56:16.078Z,28.90
2018-12-17T12:57:21.567Z,28.57
2018-12-17T12:58:27.324Z,26.73
2018-12-17T12:59:32.873Z,29.20
2018-12-17T13:00:38.393Z,28.00
2018-12-17T13:01:43.792Z,27.97
2018-12-17T13:02:49.196Z,27.03
2018-12-17T13:03:55.549Z,28.17
2018-12-17T13:05:00.974Z,26.93
2018-12-17T13:06:06.457Z,28.43
2018-12-17T13:07:11.942Z,27.27
2018-12-17T13:08:17.404Z,26.93
2018-12-17T13:09:23.146Z,28.50
2018-12-17T13:10:28.596Z,28.17
2018-12-17T13:11:34.164Z,28.93
2018-12-17T13:12:39.920Z,29.10
2018-12-17T13:13:45.414Z,28.37
2018-12-17T13:14:50.854Z,28.63
2018-12-17T13:15:56.430Z,28.67
2018-12-17T13:17:06.087Z,27.20
2018-12-17T13:18:11.507Z,27.07
2018-12-17T13:19:17.117Z,27.80
2018-12-17T13:20:22.696Z,27.83
2018-12-17T13:21:28.090Z,27.77
2018-12-17T13:22:33.581Z,28.57
2018-12-17T13:23:39.121Z,28.60
2018-12-17T13:24:44.559Z,29.23
2018-12-17T13:25:50.366Z,28.30
2018-12-17T13:26:55.803Z,25.00
2018-12-17T13:28:01.775Z,28.17
2018-12-17T13:29:07.282Z,26.50
2018-12-17T13:30:13.500Z,26.97
2018-12-17T13:31:18.966Z,27.30
2018-12-17T13:32:24.431Z,27.27
2018-12-17T13:33:30.224Z,26.40
2018-12-17T13:34:35.827Z,27.93
2018-12-17T13:35:41.262Z,28.50
2018-12-17T13:36:46.823Z,28.57
2018-12-17T13:37:52.481Z,26.00
2018-12-17T13:38:58.032Z,26.67
2018-12-17T13:40:03.793Z,27.27
2018-12-17T13:41:09.306Z,26.70
2018-12-17T13:42:14.961Z,26.27
2018-12-17T13:43:20.458Z,29.20
2018-12-17T13:44:26.087Z,27.23
2018-12-17T13:45:31.505Z,28.80
2018-12-17T13:46:36.996Z,25.90
2018-12-17T13:47:42.497Z,26.50
2018-12-17T13:48:48.094Z,29.47
2018-12-17T13:49:53.563Z,27.20
2018-12-17T13:52:30.750Z,27.30
2018-12-17T13:53:37.215Z,26.63
2018-12-17T13:54:42.615Z,28.30
2018-12-17T13:55:48.181Z,27.10
2018-12-17T13:56:53.655Z,29.07
2018-12-17T13:57:59.082Z,28.13
2018-12-17T13:59:04.523Z,29.97
2018-12-17T14:00:12.243Z,27.40
2018-12-17T14:01:21.710Z,27.33
2018-12-17T14:02:25.095Z,26.40
2018-12-17T14:03:30.487Z,26.07
2018-12-17T14:04:35.886Z,25.90
2018-12-17T14:05:41.498Z,26.60
2018-12-17T14:06:47.513Z,26.30
2018-12-17T14:07:52.937Z,24.30
2018-12-17T14:08:58.299Z,25.20
2018-12-17T14:10:09.148Z,25.80
2018-12-17T14:11:14.691Z,23.43
2018-12-17T14:12:20.136Z,25.10